Germantown Hills, Illinois
Current Conditions -  °F | °C
As of 10:15 PM on Tuesday 27 Jan 2015 (Local Time) from KC75 Reporting Station
Overcast Overcast  
Wind Chill: 29°   Ceiling: 1700
Heat Index: 29°   Visibility: 10mi
Dew Point: 24°   Wind: 3mph
Humidity: 83%   Direction: 170°S
Pressure: 30.25"   Gusts: NA
Location:  40.7942°N, 89.4075°W
Report Text: KC75 280415Z AUTO 17003KT 10SM OVC017 M02/M04 A3025 RMK AO2 T10181044
Loading
Personal Weather Stations






























Interactive Weather Map New forecast layout! Learn more

10-Day Weather Forecast

Advertisements
Track Severe Weather on mobile